Hobbs, New Mexico
Current Conditions -  °F | °C
As of 11:50 AM on Friday 24 Oct 2014 (Local Time) from KHOB Reporting Station
Clear Clear  
Wind Chill: 77°   Ceiling: Unl
Heat Index: 78°   Visibility: 10mi
Dew Point: 54°   Wind: 8mph
Humidity: 44%   Direction: 190°S
Pressure: 30.23"   Gusts: NA
Location:  32.7°N, 103.12°W
Report Text: KHOB 241750Z 19007KT 10SM SKC 25/12 A3023
Loading
Personal Weather Stations






























Interactive Weather Map
Tropical Storm Tracking
New forecast layout! Learn more

10-Day Weather Forecast

Advertisements
Track Severe Weather on mobile